sensor_id;sensor_type;location;lat;lon;timestamp;P1;durP1;ratioP1;P2;durP2;ratioP2
836;SDS011;400;53.550;9.932;2022-12-18T00:02:24;14.02;;;11.70;;
836;SDS011;400;53.550;9.932;2022-12-18T00:04:51;13.95;;;12.45;;
836;SDS011;400;53.550;9.932;2022-12-18T00:07:19;15.55;;;12.55;;
836;SDS011;400;53.550;9.932;2022-12-18T00:09:46;15.18;;;12.95;;
836;SDS011;400;53.550;9.932;2022-12-18T00:12:13;14.88;;;12.25;;
836;SDS011;400;53.550;9.932;2022-12-18T00:14:40;17.70;;;12.48;;
836;SDS011;400;53.550;9.932;2022-12-18T00:17:07;14.38;;;12.23;;
836;SDS011;400;53.550;9.932;2022-12-18T00:19:35;15.02;;;11.75;;
836;SDS011;400;53.550;9.932;2022-12-18T00:22:02;17.65;;;12.05;;
836;SDS011;400;53.550;9.932;2022-12-18T00:24:29;13.50;;;12.15;;
836;SDS011;400;53.550;9.932;2022-12-18T00:26:55;14.57;;;11.43;;
836;SDS011;400;53.550;9.932;2022-12-18T00:29:22;14.85;;;12.10;;
836;SDS011;400;53.550;9.932;2022-12-18T00:31:49;13.40;;;11.95;;
836;SDS011;400;53.550;9.932;2022-12-18T00:34:16;18.58;;;12.65;;
836;SDS011;400;53.550;9.932;2022-12-18T00:36:47;16.85;;;11.60;;
836;SDS011;400;53.550;9.932;2022-12-18T00:39:14;14.50;;;12.27;;
836;SDS011;400;53.550;9.932;2022-12-18T00:41:41;15.02;;;11.77;;
836;SDS011;400;53.550;9.932;2022-12-18T00:44:25;15.45;;;12.60;;
836;SDS011;400;53.550;9.932;2022-12-18T00:46:52;13.43;;;12.15;;
836;SDS011;400;53.550;9.932;2022-12-18T00:49:20;17.92;;;12.18;;
836;SDS011;400;53.550;9.932;2022-12-18T00:51:49;16.50;;;13.35;;
836;SDS011;400;53.550;9.932;2022-12-18T00:54:16;14.82;;;12.43;;
836;SDS011;400;53.550;9.932;2022-12-18T00:56:45;15.48;;;13.15;;
836;SDS011;400;53.550;9.932;2022-12-18T00:59:12;12.95;;;11.50;;
836;SDS011;400;53.550;9.932;2022-12-18T01:01:39;15.60;;;11.25;;
836;SDS011;400;53.550;9.932;2022-12-18T01:04:06;21.20;;;12.38;;
836;SDS011;400;53.550;9.932;2022-12-18T01:06:33;16.77;;;11.38;;
836;SDS011;400;53.550;9.932;2022-12-18T01:09:01;15.02;;;11.75;;
836;SDS011;400;53.550;9.932;2022-12-18T01:11:28;17.52;;;11.52;;
836;SDS011;400;53.550;9.932;2022-12-18T01:13:55;12.80;;;10.75;;
836;SDS011;400;53.550;9.932;2022-12-18T01:16:26;14.85;;;11.38;;
836;SDS011;400;53.550;9.932;2022-12-18T01:18:54;13.13;;;11.77;;
836;SDS011;400;53.550;9.932;2022-12-18T01:21:23;13.40;;;11.73;;
836;SDS011;400;53.550;9.932;2022-12-18T01:23:51;13.98;;;11.82;;
836;SDS011;400;53.550;9.932;2022-12-18T01:26:20;14.98;;;10.75;;
836;SDS011;400;53.550;9.932;2022-12-18T01:28:48;16.05;;;10.82;;
836;SDS011;400;53.550;9.932;2022-12-18T01:31:16;15.52;;;12.50;;
836;SDS011;400;53.550;9.932;2022-12-18T01:33:45;15.43;;;10.98;;
836;SDS011;400;53.550;9.932;2022-12-18T01:36:18;12.32;;;10.23;;
836;SDS011;400;53.550;9.932;2022-12-18T01:38:46;17.85;;;10.60;;
836;SDS011;400;53.550;9.932;2022-12-18T01:41:14;14.93;;;11.55;;
836;SDS011;400;53.550;9.932;2022-12-18T01:43:46;13.80;;;11.13;;
836;SDS011;400;53.550;9.932;2022-12-18T01:46:16;13.65;;;11.13;;
836;SDS011;400;53.550;9.932;2022-12-18T01:48:43;12.18;;;10.75;;
836;SDS011;400;53.550;9.932;2022-12-18T01:51:11;13.40;;;12.00;;
836;SDS011;400;53.550;9.932;2022-12-18T01:53:42;21.08;;;12.65;;
836;SDS011;400;53.550;9.932;2022-12-18T01:56:14;20.98;;;12.90;;
836;SDS011;400;53.550;9.932;2022-12-18T01:58:48;15.10;;;10.38;;
836;SDS011;400;53.550;9.932;2022-12-18T02:01:20;15.07;;;10.05;;
836;SDS011;400;53.550;9.932;2022-12-18T02:03:48;14.95;;;11.73;;
836;SDS011;400;53.550;9.932;2022-12-18T02:06:17;14.48;;;10.52;;
836;SDS011;400;53.550;9.932;2022-12-18T02:08:53;16.80;;;11.23;;
836;SDS011;400;53.550;9.932;2022-12-18T02:11:37;12.15;;;9.98;;
836;SDS011;400;53.550;9.932;2022-12-18T02:14:14;14.52;;;11.20;;
836;SDS011;400;53.550;9.932;2022-12-18T02:16:48;12.38;;;9.35;;
836;SDS011;400;53.550;9.932;2022-12-18T02:19:36;11.93;;;10.73;;
836;SDS011;400;53.550;9.932;2022-12-18T02:22:14;13.73;;;10.20;;
836;SDS011;400;53.550;9.932;2022-12-18T02:24:55;14.73;;;10.55;;
836;SDS011;400;53.550;9.932;2022-12-18T02:27:32;13.45;;;9.75;;
836;SDS011;400;53.550;9.932;2022-12-18T02:30:02;14.02;;;11.30;;
836;SDS011;400;53.550;9.932;2022-12-18T02:32:32;13.25;;;10.88;;
836;SDS011;400;53.550;9.932;2022-12-18T02:35:02;14.00;;;10.23;;
836;SDS011;400;53.550;9.932;2022-12-18T02:37:32;12.85;;;10.57;;
836;SDS011;400;53.550;9.932;2022-12-18T02:40:01;13.38;;;11.48;;
836;SDS011;400;53.550;9.932;2022-12-18T02:42:32;15.65;;;11.20;;
836;SDS011;400;53.550;9.932;2022-12-18T02:44:59;12.20;;;10.45;;
836;SDS011;400;53.550;9.932;2022-12-18T02:47:28;11.45;;;10.15;;
836;SDS011;400;53.550;9.932;2022-12-18T02:49:59;15.43;;;10.82;;
836;SDS011;400;53.550;9.932;2022-12-18T02:52:38;11.75;;;10.45;;
836;SDS011;400;53.550;9.932;2022-12-18T02:55:14;13.45;;;9.52;;
836;SDS011;400;53.550;9.932;2022-12-18T02:57:52;12.10;;;10.73;;
836;SDS011;400;53.550;9.932;2022-12-18T03:00:21;14.43;;;9.75;;
836;SDS011;400;53.550;9.932;2022-12-18T03:02:51;15.70;;;11.18;;
836;SDS011;400;53.550;9.932;2022-12-18T03:05:28;17.40;;;10.85;;
836;SDS011;400;53.550;9.932;2022-12-18T03:07:59;14.25;;;11.88;;
836;SDS011;400;53.550;9.932;2022-12-18T03:10:32;12.57;;;9.93;;
836;SDS011;400;53.550;9.932;2022-12-18T03:13:05;11.73;;;9.68;;
836;SDS011;400;53.550;9.932;2022-12-18T03:15:35;11.77;;;10.50;;
836;SDS011;400;53.550;9.932;2022-12-18T03:18:05;14.10;;;9.02;;
836;SDS011;400;53.550;9.932;2022-12-18T03:20:35;14.70;;;10.10;;
836;SDS011;400;53.550;9.932;2022-12-18T03:23:07;13.15;;;10.68;;
836;SDS011;400;53.550;9.932;2022-12-18T03:25:36;12.13;;;9.38;;
836;SDS011;400;53.550;9.932;2022-12-18T03:28:10;14.60;;;9.82;;
836;SDS011;400;53.550;9.932;2022-12-18T03:30:39;12.35;;;9.82;;
836;SDS011;400;53.550;9.932;2022-12-18T03:33:08;11.82;;;10.15;;
836;SDS011;400;53.550;9.932;2022-12-18T03:35:39;10.02;;;8.90;;
836;SDS011;400;53.550;9.932;2022-12-18T03:38:08;12.15;;;10.82;;
836;SDS011;400;53.550;9.932;2022-12-18T03:40:40;11.00;;;9.40;;
836;SDS011;400;53.550;9.932;2022-12-18T03:43:33;12.32;;;9.27;;
836;SDS011;400;53.550;9.932;2022-12-18T03:46:06;12.73;;;9.90;;
836;SDS011;400;53.550;9.932;2022-12-18T03:48:42;22.58;;;10.35;;
836;SDS011;400;53.550;9.932;2022-12-18T03:51:14;11.15;;;9.05;;
836;SDS011;400;53.550;9.932;2022-12-18T03:53:49;12.10;;;9.15;;
836;SDS011;400;53.550;9.932;2022-12-18T03:56:22;12.35;;;9.75;;
836;SDS011;400;53.550;9.932;2022-12-18T03:58:53;12.35;;;9.43;;
836;SDS011;400;53.550;9.932;2022-12-18T04:01:22;11.93;;;9.52;;
836;SDS011;400;53.550;9.932;2022-12-18T04:03:55;14.40;;;10.10;;
836;SDS011;400;53.550;9.932;2022-12-18T04:06:29;13.27;;;9.00;;
836;SDS011;400;53.550;9.932;2022-12-18T04:09:02;12.93;;;9.35;;
836;SDS011;400;53.550;9.932;2022-12-18T04:11:30;13.45;;;9.88;;
836;SDS011;400;53.550;9.932;2022-12-18T04:13:58;9.98;;;8.77;;
836;SDS011;400;53.550;9.932;2022-12-18T04:16:25;15.98;;;10.20;;
836;SDS011;400;53.550;9.932;2022-12-18T04:18:53;10.52;;;9.20;;
836;SDS011;400;53.550;9.932;2022-12-18T04:21:20;9.70;;;8.32;;
836;SDS011;400;53.550;9.932;2022-12-18T04:23:47;13.98;;;9.50;;
836;SDS011;400;53.550;9.932;2022-12-18T04:26:14;11.25;;;8.43;;
836;SDS011;400;53.550;9.932;2022-12-18T04:28:41;12.93;;;9.05;;
836;SDS011;400;53.550;9.932;2022-12-18T04:31:09;11.20;;;8.75;;
836;SDS011;400;53.550;9.932;2022-12-18T04:33:36;11.40;;;9.27;;
836;SDS011;400;53.550;9.932;2022-12-18T04:36:03;12.05;;;9.25;;
836;SDS011;400;53.550;9.932;2022-12-18T04:38:31;13.63;;;10.15;;
836;SDS011;400;53.550;9.932;2022-12-18T04:40:58;16.63;;;9.55;;
836;SDS011;400;53.550;9.932;2022-12-18T04:43:25;11.23;;;8.70;;
836;SDS011;400;53.550;9.932;2022-12-18T04:45:51;11.48;;;9.05;;
836;SDS011;400;53.550;9.932;2022-12-18T04:48:20;12.52;;;9.75;;
836;SDS011;400;53.550;9.932;2022-12-18T04:50:47;11.48;;;9.25;;
836;SDS011;400;53.550;9.932;2022-12-18T04:53:14;12.38;;;9.85;;
836;SDS011;400;53.550;9.932;2022-12-18T04:59:03;11.75;;;8.88;;
836;SDS011;400;53.550;9.932;2022-12-18T05:01:30;10.88;;;8.73;;
836;SDS011;400;53.550;9.932;2022-12-18T05:03:58;12.40;;;9.00;;
836;SDS011;400;53.550;9.932;2022-12-18T05:06:25;10.55;;;9.50;;
836;SDS011;400;53.550;9.932;2022-12-18T05:08:52;13.77;;;11.70;;
836;SDS011;400;53.550;9.932;2022-12-18T05:11:19;14.05;;;10.85;;
836;SDS011;400;53.550;9.932;2022-12-18T05:13:45;18.40;;;13.30;;
836;SDS011;400;53.550;9.932;2022-12-18T05:16:12;15.65;;;12.05;;
836;SDS011;400;53.550;9.932;2022-12-18T05:18:40;15.57;;;12.85;;
836;SDS011;400;53.550;9.932;2022-12-18T05:21:09;12.15;;;10.07;;
836;SDS011;400;53.550;9.932;2022-12-18T05:23:36;12.77;;;11.25;;
836;SDS011;400;53.550;9.932;2022-12-18T05:26:04;17.55;;;11.50;;
836;SDS011;400;53.550;9.932;2022-12-18T05:28:33;13.85;;;11.90;;
836;SDS011;400;53.550;9.932;2022-12-18T05:31:01;13.73;;;11.02;;
836;SDS011;400;53.550;9.932;2022-12-18T05:33:30;14.32;;;11.63;;
836;SDS011;400;53.550;9.932;2022-12-18T05:35:59;14.13;;;12.00;;
836;SDS011;400;53.550;9.932;2022-12-18T05:38:29;12.68;;;11.38;;
836;SDS011;400;53.550;9.932;2022-12-18T05:40:56;12.57;;;11.18;;
836;SDS011;400;53.550;9.932;2022-12-18T05:43:23;14.15;;;11.15;;
836;SDS011;400;53.550;9.932;2022-12-18T05:45:51;13.70;;;10.60;;
836;SDS011;400;53.550;9.932;2022-12-18T05:48:19;11.23;;;9.05;;
836;SDS011;400;53.550;9.932;2022-12-18T05:50:46;11.88;;;10.00;;
836;SDS011;400;53.550;9.932;2022-12-18T05:53:15;13.05;;;9.95;;
836;SDS011;400;53.550;9.932;2022-12-18T05:55:46;11.20;;;10.00;;
836;SDS011;400;53.550;9.932;2022-12-18T05:58:13;13.40;;;9.35;;
836;SDS011;400;53.550;9.932;2022-12-18T06:00:42;19.00;;;10.65;;
836;SDS011;400;53.550;9.932;2022-12-18T06:03:10;16.17;;;10.90;;
836;SDS011;400;53.550;9.932;2022-12-18T06:05:40;12.95;;;9.88;;
836;SDS011;400;53.550;9.932;2022-12-18T06:08:08;14.38;;;10.52;;
836;SDS011;400;53.550;9.932;2022-12-18T06:10:35;13.93;;;10.18;;
836;SDS011;400;53.550;9.932;2022-12-18T06:13:04;13.07;;;9.13;;
836;SDS011;400;53.550;9.932;2022-12-18T06:15:31;12.18;;;9.80;;
836;SDS011;400;53.550;9.932;2022-12-18T06:17:59;10.27;;;9.18;;
836;SDS011;400;53.550;9.932;2022-12-18T06:20:26;11.77;;;10.00;;
836;SDS011;400;53.550;9.932;2022-12-18T06:22:56;9.82;;;8.82;;
836;SDS011;400;53.550;9.932;2022-12-18T06:25:23;13.07;;;9.60;;
836;SDS011;400;53.550;9.932;2022-12-18T06:27:50;10.02;;;9.02;;
836;SDS011;400;53.550;9.932;2022-12-18T06:30:18;12.63;;;9.88;;
836;SDS011;400;53.550;9.932;2022-12-18T06:32:46;9.68;;;8.48;;
836;SDS011;400;53.550;9.932;2022-12-18T06:35:14;10.82;;;8.77;;
836;SDS011;400;53.550;9.932;2022-12-18T06:37:41;12.02;;;8.50;;
836;SDS011;400;53.550;9.932;2022-12-18T06:40:08;11.35;;;9.40;;
836;SDS011;400;53.550;9.932;2022-12-18T06:42:35;9.70;;;7.72;;
836;SDS011;400;53.550;9.932;2022-12-18T06:45:05;10.38;;;8.98;;
836;SDS011;400;53.550;9.932;2022-12-18T06:47:33;12.38;;;8.98;;
836;SDS011;400;53.550;9.932;2022-12-18T06:50:00;14.48;;;8.90;;
836;SDS011;400;53.550;9.932;2022-12-18T06:52:27;10.70;;;8.02;;
836;SDS011;400;53.550;9.932;2022-12-18T06:54:55;9.85;;;8.85;;
836;SDS011;400;53.550;9.932;2022-12-18T06:57:21;9.50;;;8.50;;
836;SDS011;400;53.550;9.932;2022-12-18T06:59:48;9.27;;;8.25;;
836;SDS011;400;53.550;9.932;2022-12-18T07:02:15;9.45;;;8.50;;
836;SDS011;400;53.550;9.932;2022-12-18T07:04:43;8.80;;;7.90;;
836;SDS011;400;53.550;9.932;2022-12-18T07:07:10;10.30;;;9.18;;
836;SDS011;400;53.550;9.932;2022-12-18T07:09:37;16.65;;;10.65;;
836;SDS011;400;53.550;9.932;2022-12-18T07:12:04;10.68;;;9.00;;
836;SDS011;400;53.550;9.932;2022-12-18T07:14:31;12.25;;;9.10;;
836;SDS011;400;53.550;9.932;2022-12-18T07:16:58;11.30;;;9.27;;
836;SDS011;400;53.550;9.932;2022-12-18T07:19:25;11.13;;;8.95;;
836;SDS011;400;53.550;9.932;2022-12-18T07:21:53;12.15;;;9.82;;
836;SDS011;400;53.550;9.932;2022-12-18T07:24:20;12.93;;;9.85;;
836;SDS011;400;53.550;9.932;2022-12-18T07:26:47;10.70;;;9.13;;
836;SDS011;400;53.550;9.932;2022-12-18T07:29:14;12.05;;;9.40;;
836;SDS011;400;53.550;9.932;2022-12-18T07:31:41;11.38;;;9.68;;
836;SDS011;400;53.550;9.932;2022-12-18T07:34:09;10.98;;;9.85;;
836;SDS011;400;53.550;9.932;2022-12-18T07:36:36;12.85;;;10.35;;
836;SDS011;400;53.550;9.932;2022-12-18T07:39:05;13.18;;;9.40;;
836;SDS011;400;53.550;9.932;2022-12-18T07:41:32;13.45;;;10.23;;
836;SDS011;400;53.550;9.932;2022-12-18T07:43:59;41.92;;;27.95;;
836;SDS011;400;53.550;9.932;2022-12-18T07:46:25;11.68;;;9.43;;
836;SDS011;400;53.550;9.932;2022-12-18T07:48:52;9.85;;;8.90;;
836;SDS011;400;53.550;9.932;2022-12-18T07:51:19;10.75;;;9.23;;
836;SDS011;400;53.550;9.932;2022-12-18T07:53:46;12.27;;;9.85;;
836;SDS011;400;53.550;9.932;2022-12-18T07:56:14;13.20;;;9.88;;
836;SDS011;400;53.550;9.932;2022-12-18T07:58:41;10.80;;;9.55;;
836;SDS011;400;53.550;9.932;2022-12-18T08:01:10;11.93;;;8.25;;
836;SDS011;400;53.550;9.932;2022-12-18T08:03:38;10.77;;;9.00;;
836;SDS011;400;53.550;9.932;2022-12-18T08:06:07;14.50;;;10.43;;
836;SDS011;400;53.550;9.932;2022-12-18T08:08:34;11.32;;;9.23;;
836;SDS011;400;53.550;9.932;2022-12-18T08:11:01;10.77;;;9.65;;
836;SDS011;400;53.550;9.932;2022-12-18T08:13:30;11.82;;;10.63;;
836;SDS011;400;53.550;9.932;2022-12-18T08:15:57;12.20;;;10.25;;
836;SDS011;400;53.550;9.932;2022-12-18T08:18:25;14.90;;;8.95;;
836;SDS011;400;53.550;9.932;2022-12-18T08:20:52;11.75;;;9.38;;
836;SDS011;400;53.550;9.932;2022-12-18T08:23:20;11.25;;;10.10;;
836;SDS011;400;53.550;9.932;2022-12-18T08:25:47;11.95;;;10.30;;
836;SDS011;400;53.550;9.932;2022-12-18T08:28:14;11.82;;;10.20;;
836;SDS011;400;53.550;9.932;2022-12-18T08:30:43;11.88;;;10.00;;
836;SDS011;400;53.550;9.932;2022-12-18T08:33:11;11.32;;;8.95;;
836;SDS011;400;53.550;9.932;2022-12-18T08:35:38;10.40;;;9.05;;
836;SDS011;400;53.550;9.932;2022-12-18T08:38:06;10.27;;;9.13;;
836;SDS011;400;53.550;9.932;2022-12-18T08:40:33;10.73;;;8.63;;
836;SDS011;400;53.550;9.932;2022-12-18T08:43:00;13.23;;;9.02;;
836;SDS011;400;53.550;9.932;2022-12-18T08:45:46;11.32;;;8.65;;
836;SDS011;400;53.550;9.932;2022-12-18T08:48:13;11.65;;;8.88;;
836;SDS011;400;53.550;9.932;2022-12-18T08:50:39;9.60;;;7.80;;
836;SDS011;400;53.550;9.932;2022-12-18T08:53:07;11.45;;;10.25;;
836;SDS011;400;53.550;9.932;2022-12-18T08:55:34;11.52;;;9.80;;
836;SDS011;400;53.550;9.932;2022-12-18T08:58:04;12.10;;;9.80;;
836;SDS011;400;53.550;9.932;2022-12-18T09:00:31;13.80;;;8.73;;
836;SDS011;400;53.550;9.932;2022-12-18T09:03:00;11.98;;;10.05;;
836;SDS011;400;53.550;9.932;2022-12-18T09:05:28;11.68;;;9.77;;
836;SDS011;400;53.550;9.932;2022-12-18T09:07:58;9.80;;;8.85;;
836;SDS011;400;53.550;9.932;2022-12-18T09:10:27;13.50;;;10.13;;
836;SDS011;400;53.550;9.932;2022-12-18T09:12:54;10.93;;;9.57;;
836;SDS011;400;53.550;9.932;2022-12-18T09:15:21;12.80;;;9.93;;
836;SDS011;400;53.550;9.932;2022-12-18T09:17:48;10.95;;;9.77;;
836;SDS011;400;53.550;9.932;2022-12-18T09:20:19;11.18;;;8.60;;
836;SDS011;400;53.550;9.932;2022-12-18T09:22:45;13.50;;;9.93;;
836;SDS011;400;53.550;9.932;2022-12-18T09:25:12;11.23;;;10.05;;
836;SDS011;400;53.550;9.932;2022-12-18T09:27:39;11.80;;;8.60;;
836;SDS011;400;53.550;9.932;2022-12-18T09:30:06;9.27;;;8.40;;
836;SDS011;400;53.550;9.932;2022-12-18T09:32:34;10.15;;;9.02;;
836;SDS011;400;53.550;9.932;2022-12-18T09:35:01;10.00;;;8.20;;
836;SDS011;400;53.550;9.932;2022-12-18T09:37:30;11.65;;;9.15;;
836;SDS011;400;53.550;9.932;2022-12-18T09:39:56;11.50;;;8.55;;
836;SDS011;400;53.550;9.932;2022-12-18T09:42:23;9.63;;;8.65;;
836;SDS011;400;53.550;9.932;2022-12-18T09:44:50;10.50;;;9.40;;
836;SDS011;400;53.550;9.932;2022-12-18T09:47:20;10.00;;;8.00;;
836;SDS011;400;53.550;9.932;2022-12-18T09:49:52;10.82;;;8.00;;
836;SDS011;400;53.550;9.932;2022-12-18T09:52:24;9.35;;;7.68;;
836;SDS011;400;53.550;9.932;2022-12-18T09:54:56;11.20;;;8.85;;
836;SDS011;400;53.550;9.932;2022-12-18T09:57:28;11.70;;;8.95;;
836;SDS011;400;53.550;9.932;2022-12-18T10:00:03;10.73;;;8.77;;
836;SDS011;400;53.550;9.932;2022-12-18T10:02:33;9.98;;;8.57;;
836;SDS011;400;53.550;9.932;2022-12-18T10:05:04;10.55;;;8.50;;
836;SDS011;400;53.550;9.932;2022-12-18T10:07:38;10.38;;;8.77;;
836;SDS011;400;53.550;9.932;2022-12-18T10:10:17;10.02;;;8.93;;
836;SDS011;400;53.550;9.932;2022-12-18T10:12:55;12.50;;;9.77;;
836;SDS011;400;53.550;9.932;2022-12-18T10:15:29;11.23;;;10.05;;
836;SDS011;400;53.550;9.932;2022-12-18T10:18:03;11.35;;;9.65;;
836;SDS011;400;53.550;9.932;2022-12-18T10:20:41;12.70;;;9.32;;
836;SDS011;400;53.550;9.932;2022-12-18T10:23:14;11.50;;;10.27;;
836;SDS011;400;53.550;9.932;2022-12-18T10:25:48;8.98;;;8.00;;
836;SDS011;400;53.550;9.932;2022-12-18T10:28:21;11.10;;;8.15;;
836;SDS011;400;53.550;9.932;2022-12-18T10:30:49;12.60;;;8.32;;
836;SDS011;400;53.550;9.932;2022-12-18T10:33:17;9.27;;;8.27;;
836;SDS011;400;53.550;9.932;2022-12-18T10:35:46;10.18;;;8.48;;
836;SDS011;400;53.550;9.932;2022-12-18T10:38:22;11.10;;;9.40;;
836;SDS011;400;53.550;9.932;2022-12-18T10:40:55;11.55;;;9.30;;
836;SDS011;400;53.550;9.932;2022-12-18T10:43:24;10.70;;;8.45;;
836;SDS011;400;53.550;9.932;2022-12-18T10:46:03;11.50;;;10.30;;
836;SDS011;400;53.550;9.932;2022-12-18T10:48:47;11.07;;;9.32;;
836;SDS011;400;53.550;9.932;2022-12-18T10:51:23;11.20;;;8.80;;
836;SDS011;400;53.550;9.932;2022-12-18T10:53:54;14.07;;;10.50;;
836;SDS011;400;53.550;9.932;2022-12-18T10:56:26;12.10;;;9.95;;
836;SDS011;400;53.550;9.932;2022-12-18T10:58:56;10.90;;;9.63;;
836;SDS011;400;53.550;9.932;2022-12-18T11:01:27;9.88;;;8.88;;
836;SDS011;400;53.550;9.932;2022-12-18T11:04:02;10.23;;;9.15;;
836;SDS011;400;53.550;9.932;2022-12-18T11:06:35;10.68;;;8.93;;
836;SDS011;400;53.550;9.932;2022-12-18T11:09:21;11.35;;;9.38;;
836;SDS011;400;53.550;9.932;2022-12-18T11:11:53;11.57;;;9.77;;
836;SDS011;400;53.550;9.932;2022-12-18T11:14:25;10.32;;;8.95;;
836;SDS011;400;53.550;9.932;2022-12-18T11:16:53;11.60;;;10.32;;
836;SDS011;400;53.550;9.932;2022-12-18T11:19:28;12.02;;;10.75;;
836;SDS011;400;53.550;9.932;2022-12-18T11:21:59;12.70;;;10.10;;
836;SDS011;400;53.550;9.932;2022-12-18T11:24:29;14.25;;;10.15;;
836;SDS011;400;53.550;9.932;2022-12-18T11:27:02;14.48;;;10.63;;
836;SDS011;400;53.550;9.932;2022-12-18T11:29:34;11.65;;;9.57;;
836;SDS011;400;53.550;9.932;2022-12-18T11:34:54;13.20;;;10.35;;
836;SDS011;400;53.550;9.932;2022-12-18T11:37:27;13.02;;;10.15;;
836;SDS011;400;53.550;9.932;2022-12-18T11:39:55;13.60;;;10.68;;
836;SDS011;400;53.550;9.932;2022-12-18T11:42:30;12.95;;;10.85;;
836;SDS011;400;53.550;9.932;2022-12-18T11:45:04;15.73;;;10.63;;
836;SDS011;400;53.550;9.932;2022-12-18T11:47:49;10.80;;;9.57;;
836;SDS011;400;53.550;9.932;2022-12-18T11:50:24;12.75;;;10.98;;
836;SDS011;400;53.550;9.932;2022-12-18T11:52:54;13.50;;;10.50;;
836;SDS011;400;53.550;9.932;2022-12-18T11:55:27;15.50;;;12.43;;
836;SDS011;400;53.550;9.932;2022-12-18T11:58:04;12.63;;;10.52;;
836;SDS011;400;53.550;9.932;2022-12-18T12:00:39;16.95;;;11.75;;
836;SDS011;400;53.550;9.932;2022-12-18T12:03:27;13.10;;;10.13;;
836;SDS011;400;53.550;9.932;2022-12-18T12:06:15;13.65;;;10.10;;
836;SDS011;400;53.550;9.932;2022-12-18T12:08:51;14.90;;;10.90;;
836;SDS011;400;53.550;9.932;2022-12-18T12:11:28;12.50;;;10.88;;
836;SDS011;400;53.550;9.932;2022-12-18T12:14:15;11.52;;;10.15;;
836;SDS011;400;53.550;9.932;2022-12-18T12:17:01;11.60;;;10.40;;
836;SDS011;400;53.550;9.932;2022-12-18T12:19:38;11.27;;;10.05;;
836;SDS011;400;53.550;9.932;2022-12-18T12:22:15;14.13;;;10.43;;
836;SDS011;400;53.550;9.932;2022-12-18T12:24:53;13.27;;;10.57;;
836;SDS011;400;53.550;9.932;2022-12-18T12:27:36;14.50;;;11.32;;
836;SDS011;400;53.550;9.932;2022-12-18T12:30:14;15.02;;;10.50;;
836;SDS011;400;53.550;9.932;2022-12-18T12:32:49;14.93;;;11.10;;
836;SDS011;400;53.550;9.932;2022-12-18T12:35:29;16.23;;;11.60;;
836;SDS011;400;53.550;9.932;2022-12-18T12:38:05;11.50;;;10.30;;
836;SDS011;400;53.550;9.932;2022-12-18T12:40:36;13.70;;;10.75;;
836;SDS011;400;53.550;9.932;2022-12-18T12:43:17;14.77;;;10.52;;
836;SDS011;400;53.550;9.932;2022-12-18T12:45:50;13.80;;;10.45;;
836;SDS011;400;53.550;9.932;2022-12-18T12:48:31;12.75;;;11.02;;
836;SDS011;400;53.550;9.932;2022-12-18T12:51:11;16.98;;;10.65;;
836;SDS011;400;53.550;9.932;2022-12-18T12:53:45;14.77;;;10.45;;
836;SDS011;400;53.550;9.932;2022-12-18T12:56:14;13.23;;;10.52;;
836;SDS011;400;53.550;9.932;2022-12-18T12:58:50;14.75;;;10.90;;
836;SDS011;400;53.550;9.932;2022-12-18T13:01:31;12.10;;;9.93;;
836;SDS011;400;53.550;9.932;2022-12-18T13:04:11;11.25;;;9.00;;
836;SDS011;400;53.550;9.932;2022-12-18T13:06:50;13.90;;;10.15;;
836;SDS011;400;53.550;9.932;2022-12-18T13:09:29;12.45;;;10.05;;
836;SDS011;400;53.550;9.932;2022-12-18T13:12:00;14.70;;;10.43;;
836;SDS011;400;53.550;9.932;2022-12-18T13:14:48;12.98;;;10.45;;
836;SDS011;400;53.550;9.932;2022-12-18T13:17:26;14.77;;;10.07;;
836;SDS011;400;53.550;9.932;2022-12-18T13:20:09;13.68;;;10.95;;
836;SDS011;400;53.550;9.932;2022-12-18T13:22:40;16.10;;;10.38;;
836;SDS011;400;53.550;9.932;2022-12-18T13:25:29;16.33;;;12.15;;
836;SDS011;400;53.550;9.932;2022-12-18T13:28:08;16.80;;;12.25;;
836;SDS011;400;53.550;9.932;2022-12-18T13:30:47;17.50;;;12.85;;
836;SDS011;400;53.550;9.932;2022-12-18T13:33:39;14.20;;;10.88;;
836;SDS011;400;53.550;9.932;2022-12-18T13:36:12;17.88;;;13.18;;
836;SDS011;400;53.550;9.932;2022-12-18T13:38:43;15.75;;;10.75;;
836;SDS011;400;53.550;9.932;2022-12-18T13:41:24;18.75;;;13.55;;
836;SDS011;400;53.550;9.932;2022-12-18T13:43:53;18.00;;;11.88;;
836;SDS011;400;53.550;9.932;2022-12-18T13:46:24;16.27;;;12.68;;
836;SDS011;400;53.550;9.932;2022-12-18T13:48:57;18.50;;;12.68;;
836;SDS011;400;53.550;9.932;2022-12-18T13:51:26;18.08;;;13.73;;
836;SDS011;400;53.550;9.932;2022-12-18T13:53:55;21.45;;;13.93;;
836;SDS011;400;53.550;9.932;2022-12-18T13:56:25;19.65;;;15.43;;
836;SDS011;400;53.550;9.932;2022-12-18T13:59:08;22.17;;;14.88;;
836;SDS011;400;53.550;9.932;2022-12-18T14:01:41;18.05;;;13.52;;
836;SDS011;400;53.550;9.932;2022-12-18T14:04:20;21.63;;;14.00;;
836;SDS011;400;53.550;9.932;2022-12-18T14:06:53;22.40;;;14.25;;
836;SDS011;400;53.550;9.932;2022-12-18T14:09:24;17.73;;;13.23;;
836;SDS011;400;53.550;9.932;2022-12-18T14:11:55;19.27;;;14.23;;
836;SDS011;400;53.550;9.932;2022-12-18T14:14:37;22.40;;;14.10;;
836;SDS011;400;53.550;9.932;2022-12-18T14:17:08;22.20;;;13.93;;
836;SDS011;400;53.550;9.932;2022-12-18T14:19:38;22.88;;;13.52;;
836;SDS011;400;53.550;9.932;2022-12-18T14:22:11;20.70;;;13.15;;
836;SDS011;400;53.550;9.932;2022-12-18T14:24:43;22.58;;;13.30;;
836;SDS011;400;53.550;9.932;2022-12-18T14:27:17;21.88;;;13.98;;
836;SDS011;400;53.550;9.932;2022-12-18T14:29:50;21.10;;;12.82;;
836;SDS011;400;53.550;9.932;2022-12-18T14:32:18;17.92;;;12.30;;
836;SDS011;400;53.550;9.932;2022-12-18T14:34:50;22.05;;;14.32;;
836;SDS011;400;53.550;9.932;2022-12-18T14:37:20;20.88;;;13.98;;
836;SDS011;400;53.550;9.932;2022-12-18T14:39:54;16.80;;;12.27;;
836;SDS011;400;53.550;9.932;2022-12-18T14:42:22;19.58;;;14.15;;
836;SDS011;400;53.550;9.932;2022-12-18T14:47:52;20.77;;;14.02;;
836;SDS011;400;53.550;9.932;2022-12-18T14:50:23;20.80;;;13.90;;
836;SDS011;400;53.550;9.932;2022-12-18T14:52:50;22.27;;;13.95;;
836;SDS011;400;53.550;9.932;2022-12-18T14:55:18;22.35;;;14.07;;
836;SDS011;400;53.550;9.932;2022-12-18T14:57:49;26.30;;;15.52;;
836;SDS011;400;53.550;9.932;2022-12-18T15:00:22;25.42;;;15.40;;
836;SDS011;400;53.550;9.932;2022-12-18T15:02:56;20.75;;;14.80;;
836;SDS011;400;53.550;9.932;2022-12-18T15:05:27;24.58;;;15.70;;
836;SDS011;400;53.550;9.932;2022-12-18T15:07:57;24.00;;;14.23;;
836;SDS011;400;53.550;9.932;2022-12-18T15:10:28;22.50;;;16.45;;
836;SDS011;400;53.550;9.932;2022-12-18T15:13:08;21.83;;;14.70;;
836;SDS011;400;53.550;9.932;2022-12-18T15:15:48;25.13;;;16.02;;
836;SDS011;400;53.550;9.932;2022-12-18T15:18:15;23.42;;;15.85;;
836;SDS011;400;53.550;9.932;2022-12-18T15:20:47;22.52;;;16.20;;
836;SDS011;400;53.550;9.932;2022-12-18T15:23:20;27.98;;;16.98;;
836;SDS011;400;53.550;9.932;2022-12-18T15:26:14;24.45;;;15.50;;
836;SDS011;400;53.550;9.932;2022-12-18T15:28:45;21.02;;;15.80;;
836;SDS011;400;53.550;9.932;2022-12-18T15:31:23;20.75;;;14.35;;
836;SDS011;400;53.550;9.932;2022-12-18T15:34:10;29.27;;;17.27;;
836;SDS011;400;53.550;9.932;2022-12-18T15:36:42;20.52;;;14.05;;
836;SDS011;400;53.550;9.932;2022-12-18T15:39:11;26.52;;;17.17;;
836;SDS011;400;53.550;9.932;2022-12-18T15:41:41;30.63;;;18.45;;
836;SDS011;400;53.550;9.932;2022-12-18T15:44:30;22.55;;;15.73;;
836;SDS011;400;53.550;9.932;2022-12-18T15:46:56;23.83;;;15.52;;
836;SDS011;400;53.550;9.932;2022-12-18T15:49:24;25.33;;;16.08;;
836;SDS011;400;53.550;9.932;2022-12-18T15:51:54;26.08;;;16.80;;
836;SDS011;400;53.550;9.932;2022-12-18T15:54:25;25.08;;;14.73;;
836;SDS011;400;53.550;9.932;2022-12-18T15:57:12;24.50;;;17.00;;